Decoded Metar for KMSS (MASSENA in NY, USA) (IATA:MSS) | Meteo·Mobile Aviation Weather
aviador You're here:

KMSS Decoded Metar

MASSENA in NY, USA
Report Time2018-09-26 04:53:00
UTC Time2018-09-26 05:10:59
Flight Rules mvfr MVFR
Wind170° at 05 kt
W.Decomp.*RWY 23: 3.5 kt HW 3.6 kt LCW
RWY 27: 0.3 kt HW 5 kt LCW
W.Rank170° ranks 27
Current wind is below 170° avg. (6.1)
Visibility9999 m
Phenomena:N/A
Clouds:Overcast 028 Hf
Expected CloudBase > 800 ft AGL from Temp-Dew spread
Ceiling2,800 ft
Temp19°C (ISA +4)
Dew Point17°C (88% RH)
QNH1013 hPa
Density Alt994 ft
Elevation217 ft
Report Wrong Elevation
Raw Report
KMSS 260453Z AUTO 17005KT 10SM OVC028 19/17 A2991 RMK AO2 SLP129
T01890172 401890083=

Extra information for KMSS:More info

Metar Taf Metar & Taf Last 4 Metars F.Rules Stats Wind Profile Meteogram Temp Stats Airport Information Weather charts Add Link Nearby VenuesMetar ALERT Operation Metar Decoded Social comments

AIRNAV info for KMSS